createdAt,value
2022-10-09T00:01:30.348Z,23.80
2022-10-09T00:04:00.025Z,18.10
2022-10-09T00:06:36.022Z,15.40
2022-10-09T00:09:04.915Z,18.20
2022-10-09T00:11:34.297Z,19.80
2022-10-09T00:14:03.820Z,27.60
2022-10-09T00:16:32.489Z,21.30
2022-10-09T00:19:00.738Z,23.90
2022-10-09T00:58:24.231Z,17.50
2022-10-09T01:00:53.514Z,17.90
2022-10-09T01:03:21.562Z,17.20
2022-10-09T01:06:21.023Z,20.10
2022-10-09T01:09:07.973Z,19.90
2022-10-09T01:11:42.534Z,22.70
2022-10-09T01:14:22.857Z,20.40
2022-10-09T01:17:02.769Z,16.50
2022-10-09T01:20:08.233Z,20.60
2022-10-09T01:23:04.128Z,20.20
2022-10-09T01:25:55.420Z,19.40
2022-10-09T01:28:29.284Z,22.00
2022-10-09T01:31:02.044Z,14.20
2022-10-09T01:33:32.604Z,15.00
2022-10-09T01:36:02.032Z,17.00
2022-10-09T01:38:30.986Z,19.70
2022-10-09T01:40:59.044Z,21.70
2022-10-09T01:43:27.123Z,18.90
2022-10-09T01:46:27.879Z,14.90
2022-10-09T05:05:24.568Z,14.60
2022-10-09T05:07:52.852Z,17.80
2022-10-09T05:10:20.816Z,14.50
2022-10-09T05:12:49.068Z,11.20
2022-10-09T05:15:18.850Z,17.40
2022-10-09T05:17:47.067Z,13.00
2022-10-09T05:20:15.204Z,10.60
2022-10-09T05:22:47.879Z,10.50
2022-10-09T05:25:16.059Z,12.20
2022-10-09T05:27:44.159Z,24.00
2022-10-09T05:30:12.403Z,8.30
2022-10-09T05:32:40.791Z,10.70
2022-10-09T05:35:08.958Z,16.10
2022-10-09T05:37:36.927Z,11.90
2022-10-09T05:40:05.355Z,14.20
2022-10-09T05:42:33.251Z,18.00
2022-10-09T05:45:01.412Z,12.60
2022-10-09T05:47:32.512Z,14.40
2022-10-09T05:50:00.628Z,10.20
2022-10-09T05:52:28.526Z,11.10
2022-10-09T05:54:57.377Z,12.80
2022-10-09T05:57:26.624Z,11.30
2022-10-09T05:59:54.625Z,12.50
2022-10-09T06:02:22.642Z,12.70
2022-10-09T06:04:50.550Z,12.00
2022-10-09T06:07:18.624Z,11.70
2022-10-09T06:09:46.718Z,11.20
2022-10-09T06:12:14.981Z,10.00
2022-10-09T06:14:42.842Z,11.30
2022-10-09T06:17:10.688Z,11.60
2022-10-09T06:19:38.963Z,13.30
2022-10-09T06:22:07.033Z,10.90
2022-10-09T06:24:35.130Z,9.50
2022-10-09T06:27:03.170Z,13.90
2022-10-09T06:29:31.312Z,12.30
2022-10-09T06:31:59.450Z,9.00
2022-10-09T06:34:27.608Z,12.80
2022-10-09T06:36:55.555Z,12.60
2022-10-09T06:39:26.765Z,12.20
2022-10-09T06:41:54.679Z,12.60
2022-10-09T06:44:31.347Z,16.30
2022-10-09T06:46:59.271Z,12.90
2022-10-09T06:49:27.537Z,10.50
2022-10-09T06:51:55.776Z,13.10
2022-10-09T06:54:23.881Z,11.90
2022-10-09T06:56:55.226Z,9.20
2022-10-09T06:59:23.699Z,14.30
2022-10-09T07:01:51.850Z,11.50
2022-10-09T07:04:21.669Z,8.70
2022-10-09T07:06:49.835Z,15.60
2022-10-09T07:09:17.873Z,8.90
2022-10-09T07:11:49.432Z,12.90
2022-10-09T07:14:18.296Z,8.90
2022-10-09T07:16:48.749Z,9.40
2022-10-09T07:19:18.491Z,9.00
2022-10-09T07:21:48.816Z,10.40
2022-10-09T07:24:20.705Z,9.70
2022-10-09T07:26:49.278Z,7.70
2022-10-09T07:29:19.019Z,9.00
2022-10-09T07:31:47.428Z,11.20
2022-10-09T07:34:15.544Z,9.40
2022-10-09T07:36:43.566Z,7.80
2022-10-09T07:39:11.688Z,11.80
2022-10-09T07:41:39.769Z,15.40
2022-10-09T07:44:08.471Z,8.00
2022-10-09T07:46:36.511Z,8.70
2022-10-09T07:49:05.109Z,10.10
2022-10-09T07:51:33.436Z,12.40
2022-10-09T07:54:04.819Z,10.00
2022-10-09T07:56:35.995Z,10.00
2022-10-09T07:59:12.070Z,12.00
2022-10-09T08:01:40.261Z,11.10
2022-10-09T08:04:09.871Z,9.60
2022-10-09T08:06:38.476Z,10.20
2022-10-09T08:09:07.808Z,7.40
2022-10-09T08:11:36.387Z,8.90
2022-10-09T08:14:05.014Z,11.30
2022-10-09T08:16:33.357Z,9.80
2022-10-09T08:19:02.322Z,10.10
2022-10-09T08:21:33.065Z,14.60
2022-10-09T08:24:01.433Z,13.90
2022-10-09T08:26:30.962Z,18.80
2022-10-09T08:29:02.515Z,27.00
2022-10-09T08:31:32.197Z,22.00
2022-10-09T08:34:03.374Z,26.70
2022-10-09T08:36:32.570Z,37.00
2022-10-09T08:39:00.950Z,47.20
2022-10-09T08:41:48.659Z,42.30
2022-10-09T08:44:28.639Z,35.30
2022-10-09T08:47:12.127Z,25.80
2022-10-09T08:50:06.301Z,61.80
2022-10-09T08:52:49.716Z,44.80
2022-10-09T08:55:24.931Z,44.60
2022-10-09T08:57:56.275Z,35.50
2022-10-09T09:00:28.380Z,40.40
2022-10-09T09:03:08.889Z,47.00
2022-10-09T09:06:01.054Z,42.60
2022-10-09T09:08:55.056Z,22.20
2022-10-09T09:11:44.654Z,26.40
2022-10-09T09:14:48.050Z,24.60
2022-10-09T09:17:19.098Z,38.20
2022-10-09T09:19:59.252Z,28.60
2022-10-09T09:22:28.662Z,24.40
2022-10-09T09:24:59.066Z,25.10
2022-10-09T09:27:38.475Z,25.70
2022-10-09T09:30:34.956Z,19.50
2022-10-09T09:33:42.283Z,9.00
2022-10-09T09:36:28.569Z,11.40
2022-10-09T09:41:44.970Z,8.00
2022-10-09T09:44:15.326Z,10.80
2022-10-09T09:46:46.893Z,8.40
2022-10-09T09:49:21.116Z,13.50
2022-10-09T09:51:50.960Z,11.20
2022-10-09T09:54:28.267Z,11.50
2022-10-09T09:57:13.897Z,7.40
2022-10-09T09:59:44.261Z,10.80
2022-10-09T10:02:20.270Z,10.90
2022-10-09T10:04:49.514Z,9.00
2022-10-09T10:07:34.430Z,8.60
2022-10-09T10:10:14.456Z,9.60
2022-10-09T10:12:46.433Z,10.60
2022-10-09T10:15:21.488Z,9.40
2022-10-09T10:17:57.673Z,8.40
2022-10-09T10:20:28.047Z,9.00
2022-10-09T10:22:57.954Z,9.20
2022-10-09T10:25:35.011Z,7.50
2022-10-09T10:28:15.781Z,15.50
2022-10-09T10:30:44.955Z,7.80
2022-10-09T10:33:40.845Z,8.40
2022-10-09T10:38:50.427Z,9.60
2022-10-09T10:41:28.206Z,12.70
2022-10-09T10:44:15.647Z,7.70
2022-10-09T10:47:00.255Z,9.60
2022-10-09T10:49:33.467Z,7.20
2022-10-09T10:52:17.498Z,9.30
2022-10-09T10:55:03.216Z,8.00
2022-10-09T10:58:03.582Z,15.10
2022-10-09T11:00:37.394Z,9.10
2022-10-09T11:03:07.904Z,8.90
2022-10-09T11:05:38.874Z,7.30
2022-10-09T11:08:37.103Z,9.50
2022-10-09T11:11:18.975Z,10.00
2022-10-09T11:14:04.484Z,10.10
2022-10-09T11:16:37.052Z,8.40
2022-10-09T11:19:45.549Z,9.40
2022-10-09T11:22:29.224Z,10.10
2022-10-09T11:25:27.594Z,9.40
2022-10-09T11:28:22.633Z,8.90
2022-10-09T11:30:57.980Z,6.30
2022-10-09T11:33:52.710Z,8.30
2022-10-09T11:36:27.595Z,6.90
2022-10-09T11:41:29.326Z,8.70
2022-10-09T11:44:25.002Z,6.70
2022-10-09T11:47:03.386Z,7.50
2022-10-09T11:49:54.716Z,10.40
2022-10-09T11:52:28.890Z,9.40
2022-10-09T11:55:08.244Z,13.70
2022-10-09T11:57:36.833Z,7.90
2022-10-09T12:00:08.583Z,11.30
2022-10-09T12:02:38.802Z,7.50
2022-10-09T12:05:40.546Z,9.20
2022-10-09T12:08:08.631Z,12.10
2022-10-09T12:10:41.521Z,8.50
2022-10-09T12:13:28.359Z,10.30
2022-10-09T12:15:59.676Z,9.00
2022-10-09T12:18:33.487Z,13.70
2022-10-09T12:21:18.770Z,8.60
2022-10-09T12:23:47.944Z,7.30
2022-10-09T12:26:17.937Z,11.20
2022-10-09T12:28:51.508Z,6.20
2022-10-09T12:31:29.795Z,10.20
2022-10-09T12:34:03.342Z,9.10
2022-10-09T12:36:32.346Z,8.90
2022-10-09T12:39:20.820Z,7.30
2022-10-09T12:41:54.799Z,7.40
2022-10-09T12:44:30.705Z,8.10
2022-10-09T12:47:10.047Z,9.40
2022-10-09T12:49:38.490Z,10.80
2022-10-09T12:52:15.279Z,11.80
2022-10-09T12:54:45.142Z,8.40
2022-10-09T12:57:16.225Z,8.00
2022-10-09T12:59:46.438Z,8.80
2022-10-09T13:02:18.946Z,9.00
2022-10-09T13:04:59.878Z,9.50
2022-10-09T13:07:30.396Z,8.50
2022-10-09T13:10:19.345Z,12.40
2022-10-09T13:12:53.636Z,11.40
2022-10-09T13:15:32.886Z,9.60
2022-10-09T13:18:12.896Z,7.40
2022-10-09T13:20:41.777Z,10.70
2022-10-09T13:23:27.742Z,11.60
2022-10-09T13:28:29.894Z,9.50
2022-10-09T13:31:07.718Z,8.80
2022-10-09T13:33:36.113Z,7.60
2022-10-09T13:36:04.530Z,9.20
2022-10-09T13:38:34.936Z,9.00
2022-10-09T13:41:03.710Z,18.90
2022-10-09T13:43:33.087Z,11.30
2022-10-09T13:46:01.478Z,7.00
2022-10-09T13:48:31.385Z,10.80
2022-10-09T13:51:00.047Z,9.40
2022-10-09T13:53:28.630Z,9.40
2022-10-09T13:56:00.730Z,9.10
2022-10-09T13:58:29.533Z,9.70
2022-10-09T14:00:58.701Z,11.80
2022-10-09T14:03:27.402Z,11.10
2022-10-09T14:06:01.145Z,11.70
2022-10-09T14:08:30.437Z,10.60
2022-10-09T14:11:02.962Z,12.70
2022-10-09T14:13:31.278Z,16.90
2022-10-09T14:15:59.585Z,8.60
2022-10-09T14:18:27.816Z,12.40
2022-10-09T14:20:56.021Z,11.80
2022-10-09T14:23:24.302Z,12.30
2022-10-09T14:25:52.390Z,13.70
2022-10-09T14:28:20.572Z,18.70
2022-10-09T14:30:49.229Z,16.40
2022-10-09T14:33:17.684Z,13.30
2022-10-09T14:35:45.701Z,15.30
2022-10-09T14:38:14.398Z,11.40
2022-10-09T14:40:44.542Z,15.00
2022-10-09T14:43:12.832Z,14.90
2022-10-09T14:45:41.206Z,16.40
2022-10-09T14:48:09.738Z,16.00
2022-10-09T14:50:38.141Z,15.10
2022-10-09T14:53:06.741Z,12.30
2022-10-09T14:55:35.692Z,13.70
2022-10-09T14:58:03.847Z,16.40
2022-10-09T15:00:32.221Z,14.50
2022-10-09T15:03:00.805Z,13.40
2022-10-09T15:05:29.275Z,16.20
2022-10-09T15:07:57.860Z,20.50
2022-10-09T15:10:26.162Z,19.50
2022-10-09T15:12:54.242Z,16.00
2022-10-09T15:15:22.265Z,18.30
2022-10-09T15:17:51.137Z,16.30
2022-10-09T15:20:19.523Z,15.70
2022-10-09T15:22:47.951Z,19.70
2022-10-09T15:25:17.514Z,15.30
2022-10-09T15:27:46.515Z,18.10
2022-10-09T15:30:16.283Z,20.10
2022-10-09T15:32:44.724Z,17.00
2022-10-09T15:35:13.094Z,20.50
2022-10-09T15:37:41.794Z,16.60
2022-10-09T15:40:10.553Z,15.30
2022-10-09T15:42:41.553Z,19.20
2022-10-09T15:45:09.897Z,22.20
2022-10-09T15:47:51.030Z,22.00
2022-10-09T15:50:19.890Z,15.90
2022-10-09T15:52:49.187Z,16.50
2022-10-09T15:55:17.553Z,18.20
2022-10-09T15:57:46.415Z,17.70
2022-10-09T16:00:15.093Z,19.60
2022-10-09T16:02:43.309Z,17.20
2022-10-09T16:05:11.415Z,20.80
2022-10-09T16:07:39.487Z,18.30
2022-10-09T16:10:07.786Z,17.30
2022-10-09T16:12:35.976Z,18.00
2022-10-09T16:15:04.463Z,17.60
2022-10-09T16:17:32.634Z,14.70
2022-10-09T16:20:01.099Z,18.20
2022-10-09T16:22:29.087Z,18.70
2022-10-09T16:24:57.371Z,16.80
2022-10-09T16:27:25.595Z,14.30
2022-10-09T16:29:54.712Z,14.20
2022-10-09T16:32:23.440Z,22.30
2022-10-09T16:34:51.796Z,17.00
2022-10-09T16:37:19.988Z,16.80
2022-10-09T16:39:49.854Z,20.70
2022-10-09T16:42:18.561Z,19.10
2022-10-09T16:44:48.547Z,12.80
2022-10-09T16:47:16.798Z,20.00
2022-10-09T16:49:45.516Z,21.30
2022-10-09T16:52:13.962Z,17.10
2022-10-09T16:54:42.175Z,25.00
2022-10-09T16:57:10.558Z,15.50
2022-10-09T16:59:42.620Z,24.90
2022-10-09T17:02:12.985Z,17.80
2022-10-09T17:04:42.198Z,21.40
2022-10-09T17:07:11.680Z,20.90
2022-10-09T17:09:41.084Z,20.10
2022-10-09T17:12:13.211Z,16.90
2022-10-09T17:14:42.881Z,22.70
2022-10-09T17:17:12.546Z,22.90
2022-10-09T17:19:41.087Z,21.60
2022-10-09T17:22:09.665Z,18.10
2022-10-09T17:24:37.931Z,25.30
2022-10-09T17:27:10.465Z,22.90
2022-10-09T17:29:39.488Z,21.20
2022-10-09T17:32:09.479Z,19.40
2022-10-09T17:34:43.089Z,21.70
2022-10-09T17:37:11.784Z,21.80
2022-10-09T17:39:39.878Z,17.50
2022-10-09T17:42:08.217Z,29.90
2022-10-09T17:44:36.420Z,21.90
2022-10-09T17:47:05.612Z,24.90
2022-10-09T17:49:34.210Z,19.80
2022-10-09T17:52:02.113Z,20.30
2022-10-09T17:54:30.189Z,26.50
2022-10-09T17:57:00.346Z,20.10
2022-10-09T17:59:28.436Z,22.90
2022-10-09T18:01:56.738Z,27.90
2022-10-09T18:04:24.893Z,23.70
2022-10-09T18:06:53.049Z,22.70
2022-10-09T18:09:21.906Z,24.00
2022-10-09T18:11:50.113Z,26.30
2022-10-09T18:14:18.268Z,35.60
2022-10-09T18:16:46.665Z,23.80
2022-10-09T18:19:21.699Z,24.20
2022-10-09T18:21:50.631Z,29.40
2022-10-09T18:24:19.079Z,30.00
2022-10-09T18:26:47.595Z,26.70
2022-10-09T18:29:15.987Z,24.40
2022-10-09T18:31:44.457Z,25.30
2022-10-09T18:34:12.908Z,20.10
2022-10-09T18:36:40.955Z,26.40
2022-10-09T18:39:13.696Z,22.80
2022-10-09T18:41:42.895Z,26.50
2022-10-09T18:44:17.846Z,25.90
2022-10-09T18:46:59.240Z,25.30
2022-10-09T18:49:31.934Z,28.10
2022-10-09T18:52:02.946Z,28.70
2022-10-09T18:54:31.663Z,25.10
2022-10-09T18:57:00.243Z,29.60
2022-10-09T18:59:29.412Z,26.60
2022-10-09T19:01:57.468Z,25.80
2022-10-09T19:04:25.943Z,26.90
2022-10-09T19:06:55.017Z,28.70
2022-10-09T19:09:23.427Z,22.90
2022-10-09T19:11:52.803Z,24.20
2022-10-09T19:14:21.032Z,23.00
2022-10-09T19:16:49.412Z,23.80
2022-10-09T19:19:18.052Z,23.80
2022-10-09T19:21:46.474Z,24.70
2022-10-09T19:24:15.113Z,23.60
2022-10-09T19:26:43.692Z,22.60
2022-10-09T19:29:11.938Z,24.90
2022-10-09T19:31:40.131Z,27.50
2022-10-09T19:34:09.330Z,22.40
2022-10-09T19:36:37.998Z,21.20
2022-10-09T19:39:09.814Z,23.30
2022-10-09T19:41:39.248Z,22.60
2022-10-09T19:44:07.189Z,22.70
2022-10-09T19:46:40.138Z,21.90
2022-10-09T19:49:09.134Z,22.40
2022-10-09T19:51:37.323Z,23.30
2022-10-09T19:54:07.365Z,27.50
2022-10-09T19:56:37.130Z,23.90
2022-10-09T19:59:07.866Z,21.00
2022-10-09T20:01:37.822Z,26.30
2022-10-09T20:04:09.948Z,21.50
2022-10-09T20:06:40.757Z,24.40
2022-10-09T20:09:11.708Z,25.20
2022-10-09T20:11:39.983Z,24.50
2022-10-09T20:14:09.915Z,25.30
2022-10-09T20:16:38.334Z,28.90
2022-10-09T20:19:07.110Z,21.10
2022-10-09T20:21:35.686Z,26.70
2022-10-09T20:24:04.135Z,20.70
2022-10-09T20:26:33.595Z,24.30
2022-10-09T20:29:02.164Z,24.20
2022-10-09T20:31:30.687Z,20.30
2022-10-09T20:33:58.861Z,20.90
2022-10-09T20:36:33.536Z,20.90
2022-10-09T20:39:06.185Z,23.00
2022-10-09T20:41:35.245Z,18.60
2022-10-09T20:44:04.832Z,21.80
2022-10-09T20:46:35.432Z,22.30
2022-10-09T20:49:06.370Z,17.20
2022-10-09T20:51:35.855Z,22.60
2022-10-09T20:54:05.061Z,19.70
2022-10-09T20:56:34.550Z,19.50
2022-10-09T20:59:03.549Z,23.20
2022-10-09T21:01:31.668Z,17.90
2022-10-09T21:03:59.727Z,23.80
2022-10-09T21:06:27.891Z,19.00
2022-10-09T21:08:57.812Z,19.10
2022-10-09T21:11:26.394Z,15.90
2022-10-09T21:13:54.376Z,18.80
2022-10-09T21:16:24.393Z,19.60
2022-10-09T21:19:00.142Z,14.70
2022-10-09T21:21:30.015Z,16.30
2022-10-09T21:23:59.898Z,15.10
2022-10-09T21:26:29.629Z,17.40
2022-10-09T21:28:59.931Z,20.00
2022-10-09T21:31:30.727Z,18.90
2022-10-09T21:34:02.142Z,21.30
2022-10-09T21:36:51.196Z,17.30
2022-10-09T21:39:27.928Z,29.60
2022-10-09T21:41:56.937Z,19.40
2022-10-09T21:44:24.890Z,27.70
2022-10-09T21:46:53.051Z,17.60
2022-10-09T21:49:24.273Z,18.30
2022-10-09T21:51:53.446Z,17.40
2022-10-09T21:54:21.479Z,17.80
2022-10-09T21:56:49.668Z,22.60
2022-10-09T21:59:17.961Z,21.20
2022-10-09T22:01:46.040Z,19.10
2022-10-09T22:04:14.541Z,24.30
2022-10-09T22:06:43.851Z,22.80
2022-10-09T22:09:13.495Z,21.50
2022-10-09T22:11:44.648Z,19.60
2022-10-09T22:14:14.289Z,22.50
2022-10-09T22:16:42.484Z,18.00
2022-10-09T22:19:10.615Z,19.40
2022-10-09T22:21:38.701Z,19.80
2022-10-09T22:24:06.843Z,19.60
2022-10-09T22:26:35.008Z,21.50
2022-10-09T22:29:03.183Z,25.60
2022-10-09T22:31:31.480Z,19.50
2022-10-09T22:34:01.960Z,27.10
2022-10-09T22:36:32.295Z,21.90
2022-10-09T22:39:02.956Z,23.70
2022-10-09T22:41:31.199Z,22.00
2022-10-09T22:44:00.810Z,19.80
2022-10-09T22:46:31.401Z,18.60
2022-10-09T22:48:59.951Z,19.80
2022-10-09T22:51:29.318Z,19.10
2022-10-09T22:53:59.433Z,22.20
2022-10-09T22:56:31.706Z,18.20
2022-10-09T22:58:59.856Z,21.80
2022-10-09T23:01:38.745Z,20.00
2022-10-09T23:04:10.922Z,19.90
2022-10-09T23:06:40.070Z,19.80
2022-10-09T23:09:09.750Z,16.50
2022-10-09T23:11:37.914Z,16.10
2022-10-09T23:14:06.406Z,18.10
2022-10-09T23:16:34.957Z,22.40
2022-10-09T23:19:06.957Z,19.60
2022-10-09T23:21:38.210Z,19.90
2022-10-09T23:24:07.666Z,29.50
2022-10-09T23:26:36.529Z,25.90
2022-10-09T23:29:08.161Z,18.00
2022-10-09T23:31:37.269Z,20.40
2022-10-09T23:34:06.426Z,21.70
2022-10-09T23:36:35.357Z,23.40
2022-10-09T23:39:06.773Z,20.10
2022-10-09T23:41:34.991Z,21.70
2022-10-09T23:44:03.138Z,21.90
2022-10-09T23:46:35.724Z,20.10
2022-10-09T23:49:04.979Z,21.70
2022-10-09T23:51:34.188Z,25.10
2022-10-09T23:54:02.275Z,17.50
2022-10-09T23:56:37.415Z,23.70
2022-10-09T23:59:06.296Z,20.80
